Sedgwick Reserve, California Weather observations

Data are for 10 minute period ending at time listed.
 Day   Time   Solar   Ave.   Ave.  Ave.  Vector  Max.   Baro.   Total    
  of    of     Rad.   Air    Rel.  Wind   Wind   Wind  Press.  Precip.   
Year   Day            Temp.  Hum.  Speed  Dir.   Gust                    
2015   (PST)  Kw/m2    F      %     mph   deg.    mph    mb.     in.     
-------------------------------------------------------------------------
 108   11:20   0.86   78.3    21    8.8   231    16.3   973.6    0.00 
 108   11:30   0.91   78.5    23    8.9   219    15.5   973.5    0.00 
 108   11:40   0.91   78.4    25   10.0   219    16.9   973.2    0.00 
 108   11:50   0.91   78.8    25    8.9   219    17.7   973.1    0.00 
 108   12:00   0.91   79.4    24    8.5   233    15.6   973.0    0.00 
 108   12:10   0.91   79.8    22    8.0   270    12.7   973.0    0.00 
 108   12:20   0.91   80.0    24    8.2   240    16.0   972.9    0.00 
 108   12:30   0.90   79.2    24    8.9   240    16.4   972.9    0.00 
 108   12:40   0.90   79.6    23    9.9   262    17.3   972.8    0.00 
 108   12:50   0.89   79.6    24    9.6   260    15.9   972.8    0.00 
 108   13:00   0.88   79.4    27   10.7   270    18.3   972.8    0.00 
 108   13:10   0.87   79.1    28   11.2   291    18.9   972.9    0.00 
 108   13:20   0.86   78.7    28   11.2   279    18.0   972.8    0.00 
 108   13:30   0.84   78.9    28    9.4   283    15.5   972.8    0.00 
 108   13:40   0.83   78.9    26    9.6   284    15.0   972.8    0.00 
 108   13:50   0.82   79.2    25    8.7   294    14.4   972.6    0.00 
 108   14:00   0.80   78.9    24   10.4   262    17.5   972.5    0.00 
 108   14:10   0.78   78.1    25   10.5   274    17.1   972.4    0.00 
 108   14:20   0.76   77.9    25   10.0   274    17.2   972.3    0.00 
 108   14:30   0.74   78.6    25    8.7   262    15.7   972.2    0.00 
 108   14:40   0.71   77.8    26   11.0   251    17.0   972.2    0.00 
 108   14:50   0.69   77.7    27   11.0   251    17.6   972.1    0.00 
 108   15:00   0.66   78.5    26    8.2   248    13.8   972.1    0.00 
 108   15:10   0.63   77.7    29    8.7   256    14.5   972.0    0.00 
 108   15:20   0.60   77.2    31   10.9   272    17.0   972.0    0.00 
 108   15:30   0.57   77.6    31    8.6   260    14.9   972.0    0.00 
 108   15:40   0.54   76.6    32   12.2   266    15.8   972.0    0.00 
 108   15:50   0.51   77.5    32    9.4   296    17.6   972.0    0.00 
 108   16:00   0.47   76.7    33    9.4   292    15.5   972.0    0.00 
 108   16:10   0.44   77.1    31    7.7   301    14.8   972.0    0.00 
 108   16:20   0.41   76.6    27    6.2   319    11.1   972.0    0.00 
 108   16:30   0.37   76.5    26    6.4   306    12.4   972.0    0.00 
 108   16:40   0.34   76.3    25    7.2   302    14.2   972.0    0.00 
 108   16:50   0.30   74.8    24    9.3   287    15.8   972.0    0.00 
 108   17:00   0.27   74.9    23    7.3   302    13.8   972.0    0.00 
 108   17:10   0.23   73.9    23    9.4   284    15.3   972.0    0.00 
 108   17:20   0.20   73.6    24    7.8   283    15.2   971.9    0.00 
 108   17:30   0.17   73.3    25    7.0   289    12.6   971.9    0.00 
 108   17:40   0.13   72.3    24    9.4   274    13.8   971.9    0.00 
 108   17:50   0.10   71.5    25    7.8   281    13.2   971.9    0.00 
 108   18:00   0.08   70.6    27    8.3   278    12.6   971.9    0.00 
 108   18:10   0.05   69.3    31    9.1   280    12.9   971.9    0.00 
 108   18:20   0.02   68.0    36    6.5   278    11.0   971.8    0.00 
 108   18:30   0.01   66.7    38    4.9   300     9.6   971.7    0.00 
 108   18:40   0.00   65.6    39    2.9   320     8.1   971.6    0.00 
 108   18:50   0.00   64.7    40    1.8   248     3.2   971.6    0.00 
 108   19:00   0.00   63.4    43    2.5   226     3.9   971.7    0.00 
 108   19:10   0.00   62.3    44    3.9   243     5.4   971.6    0.00 
 108   19:20   0.00   61.9    43    2.4   258     5.0   971.7    0.00 
 108   19:30   0.00   60.6    44    1.3   249     2.4   971.8    0.00 
 108   19:40   0.00   59.3    46    0.7   200     1.7   971.8    0.00 
 108   19:50   0.00   57.9    54    2.2   125     4.3   971.9    0.00 
 108   20:00   0.00   56.6    60    2.5   124     4.0   971.9    0.00 
 108   20:10   0.00   55.4    62    2.4   105     4.1   972.1    0.00 
 108   20:20   0.00   54.8    68    3.1   121     4.5   972.2    0.00 
 108   20:30   0.00   54.2    71    2.8   107     4.5   972.3    0.00 
 108   20:40   0.00   53.9    74    0.9   117     2.6   972.4    0.00 
 108   20:50   0.00   53.1    74    0.2   358     0.9   972.4    0.00 
 108   21:00   0.00   51.3    72    0.8     8     2.1   972.4    0.00 
 108   21:10   0.00   50.8    73    0.5   359     1.8   972.4    0.00 
 108   21:20   0.00   50.4    71    1.4    59     2.5   972.5    0.00 
 108   21:30   0.00   50.0    69    1.5    56     3.0   972.7    0.00 
 108   21:40   0.00   49.5    76    1.8    79     3.0   972.7    0.00 
 108   21:50   0.00   49.3    82    1.8    86     2.9   972.7    0.00 
 108   22:00   0.00   48.5    82    0.7    50     1.3   972.7    0.00 
 108   22:10   0.00   47.6    84    1.6    11     3.1   972.7    0.00 
 108   22:20   0.00   47.2    84    1.9     2     2.9   972.6    0.00 
 108   22:30   0.00   46.8    85    0.6   345     1.8   972.6    0.00 
 108   22:40   0.00   46.5    84    2.0   348     4.4   972.6    0.00 
 108   22:50   0.00   46.4    83    0.7   318     3.3   972.6    0.00 
 108   23:00   0.00   45.7    79    0.3   296     2.0   972.6    0.00 
 108   23:10   0.00   45.5    82    0.2   241     1.5   972.6    0.00 
 108   23:20   0.00   45.5    82    0.0   236     0.6   972.7    0.00 
 108   23:30   0.00   45.2    82    0.3     1     2.6   972.8    0.00 
 108   23:40   0.00   44.7    82    0.8   334     2.4   972.8    0.00 
 108   23:50   0.00   44.9    84    0.1    24     1.5   972.7    0.00 
 109    0:00   0.00   44.8    82    0.5   284     1.9   972.7    0.00 
 109    0:10   0.00   45.0    85    1.0   240     1.9   972.7    0.00 
 109    0:20   0.00   44.9    85    0.5    12     1.5   972.7    0.00 
 109    0:30   0.00   44.7    84    0.3    32     1.5   972.7    0.00 
 109    0:40   0.00   44.5    85    0.3   360     2.1   972.6    0.00 
 109    0:50   0.00   44.5    86    0.3   324     1.6   972.5    0.00 
 109    1:00   0.00   44.6    87    0.6   238     2.0   972.3    0.00 
 109    1:10   0.00   44.4    87    0.6   195     1.8   972.2    0.00 
 109    1:20   0.00   44.2    88    0.8   256     1.8   972.1    0.00 
 109    1:30   0.00   44.0    88    0.4    58     1.9   972.1    0.00 
 109    1:40   0.00   43.8    88    0.1    57     0.9   972.0    0.00 
 109    1:50   0.00   44.1    89    0.3   310     1.4   971.9    0.00 
 109    2:00   0.00   44.1    88    0.7   250     2.5   971.8    0.00 
 109    2:10   0.00   44.4    90    1.2   276     2.7   971.7    0.00 
 109    2:20   0.00   43.7    88    0.1     3     0.9   971.6    0.00 
 109    2:30   0.00   43.5    89    0.8   274     1.6   971.6    0.00 
 109    2:40   0.00   43.6    89    0.2   271     1.1   971.6    0.00 
 109    2:50   0.00   43.1    87    0.4    76     1.6   971.6    0.00 
 109    3:00   0.00   43.3    88    0.4     2     1.6   971.6    0.00 
 109    3:10   0.00   43.8    88    0.2    19     1.1   971.6    0.00 
 109    3:20   0.00   44.0    87    0.2   357     1.6   971.5    0.00 
 109    3:30   0.00   43.8    88    0.3   242     1.4   971.6    0.00 
 109    3:40   0.00   43.7    86    0.7   238     1.6   971.6    0.00 
 109    3:50   0.00   43.3    85    0.5   234     1.6   971.6    0.00 
 109    4:00   0.00   43.1    85    0.2   359     1.3   971.5    0.00 
 109    4:10   0.00   43.2    84    0.3    14     1.2   971.5    0.00 
 109    4:20   0.00   42.7    85    0.3   247     1.2   971.5    0.00 
 109    4:30   0.00   42.8    87    0.2   239     1.7   971.5    0.00 
 109    4:40   0.00   42.1    85    0.1   171     1.2   971.6    0.00 
 109    4:50   0.00   41.4    86    0.0    45     0.4   971.7    0.00 
 109    5:00   0.00   40.7    88    0.5   150     1.7   971.9    0.00 
 109    5:10   0.00   40.8    89    0.6   152     1.8   972.0    0.00 
 109    5:20   0.00   40.8    88    0.6    66     1.4   972.1    0.00 
 109    5:30   0.01   40.2    88    1.4    96     1.8   972.2    0.00 
 109    5:40   0.01   39.7    89    0.8    41     1.8   972.4    0.00 
 109    5:50   0.02   39.5    89    0.9    45     1.8   972.5    0.00 
 109    6:00   0.04   39.5    89    1.0    38     1.7   972.6    0.00 
 109    6:10   0.07   39.9    90    0.4    70     1.5   972.7    0.00 
 109    6:20   0.09   41.3    91    0.0    14     0.9   972.8    0.00 
 109    6:30   0.14   42.8    85    0.2    73     0.9   972.9    0.00 
 109    6:40   0.17   44.5    82    0.1   180     1.0   973.0    0.00 
 109    6:50   0.21   46.2    80    0.4   157     1.1   973.1    0.00 
 109    7:00   0.24   47.9    77    1.5   110     3.4   972.9    0.00 
 109    7:10   0.28   48.2    79    1.4   126     2.7   972.8    0.00 
 109    7:20   0.31   49.2    77    2.3   137     3.7   972.7    0.00 
 109    7:30   0.35   51.2    73    3.0   106     5.2   972.6    0.00 
 109    7:40   0.38   52.0    71    3.5   126     5.5   972.5    0.00 
 109    7:50   0.42   51.2    73    3.0   134     5.2   972.4    0.00 
 109    8:00   0.45   53.3    70    2.9   124     4.9   972.3    0.00 
 109    8:10   0.49   55.2    66    2.8   109     5.6   972.1    0.00 
 109    8:20   0.52   55.6    66    2.7   131     5.0   972.0    0.00 
 109    8:30   0.55   57.4    63    3.6   140     6.3   971.9    0.00 
 109    8:40   0.58   58.5    61    3.9   122     6.9   971.9    0.00 
 109    8:50   0.61   59.7    60    4.2   119     6.4   971.9    0.00 
 109    9:00   0.64   61.1    57    3.7   115     6.7   971.9    0.00 
 109    9:10   0.67   62.3    55    3.6   124     5.8   972.0    0.00 
 109    9:20   0.70   64.1    51    3.0   116     5.3   972.1    0.00 
 109    9:30   0.73   65.8    47    2.9   115     5.5   972.1    0.00 
 109    9:40   0.75   68.4    44    2.6   116     6.4   972.1    0.00 
 109    9:50   0.77   69.4    44    3.8   113     6.6   972.2    0.00 
 109   10:00   0.79   70.6    42    3.1   160     6.9   972.2    0.00 
 109   10:10   0.81   71.2    39    3.8   204     7.3   972.2    0.00 
 109   10:20   0.83   70.5    38    4.3   222     9.1   972.2    0.00 
 109   10:30   0.85   71.6    37    4.3   212     9.4   972.2    0.00 
 109   10:40   0.87   72.4    37    5.4   196     9.5   972.2    0.00 
 109   10:50   0.88   71.7    36    6.4   214     9.6   972.1    0.00 
 109   11:00   0.89   72.8    32    4.7   213     9.0   972.0    0.00 
 109   11:10   0.90   74.4    30    5.9   222    11.8   971.8    0.00 

Return to Sedgwick Reserve graphs page.


Western Regional Climate Center,wrcc@dri.edu